sensor_id;sensor_type;location;lat;lon;timestamp;pressure;altitude;pressure_sealevel;temperature;humidity
38688;BME280;24444;53.216;-6.664;2022-07-23T00:01:29;100616.07;;;11.60;88.10
38688;BME280;24444;53.216;-6.664;2022-07-23T00:03:57;100615.91;;;11.48;88.92
38688;BME280;24444;53.216;-6.664;2022-07-23T00:06:24;100615.15;;;11.45;89.90
38688;BME280;24444;53.216;-6.664;2022-07-23T00:08:52;100613.99;;;11.54;89.50
38688;BME280;24444;53.216;-6.664;2022-07-23T00:11:19;100617.16;;;11.96;89.73
38688;BME280;24444;53.216;-6.664;2022-07-23T00:13:47;100614.28;;;11.62;89.44
38688;BME280;24444;53.216;-6.664;2022-07-23T00:16:14;100616.37;;;11.28;90.21
38688;BME280;24444;53.216;-6.664;2022-07-23T00:18:42;100618.28;;;11.41;91.04
38688;BME280;24444;53.216;-6.664;2022-07-23T00:21:09;100615.67;;;11.91;91.47
38688;BME280;24444;53.216;-6.664;2022-07-23T00:23:37;100616.25;;;10.92;92.55
38688;BME280;24444;53.216;-6.664;2022-07-23T00:26:04;100609.80;;;11.51;93.19
38688;BME280;24444;53.216;-6.664;2022-07-23T00:28:32;100608.05;;;11.20;93.29
38688;BME280;24444;53.216;-6.664;2022-07-23T00:30:59;100607.09;;;11.76;93.72
38688;BME280;24444;53.216;-6.664;2022-07-23T00:33:27;100607.77;;;11.38;94.85
38688;BME280;24444;53.216;-6.664;2022-07-23T00:35:55;100603.39;;;11.14;94.45
38688;BME280;24444;53.216;-6.664;2022-07-23T00:38:22;100596.99;;;11.51;94.26
38688;BME280;24444;53.216;-6.664;2022-07-23T00:40:49;100596.19;;;10.80;96.10
38688;BME280;24444;53.216;-6.664;2022-07-23T00:43:16;100595.26;;;11.10;96.85
38688;BME280;24444;53.216;-6.664;2022-07-23T00:45:44;100594.56;;;11.72;96.18
38688;BME280;24444;53.216;-6.664;2022-07-23T00:48:11;100591.85;;;11.18;99.19
38688;BME280;24444;53.216;-6.664;2022-07-23T00:50:39;100590.51;;;11.43;99.89
38688;BME280;24444;53.216;-6.664;2022-07-23T00:53:07;100585.16;;;11.07;100.00
38688;BME280;24444;53.216;-6.664;2022-07-23T00:55:34;100580.74;;;11.05;100.00
38688;BME280;24444;53.216;-6.664;2022-07-23T00:58:02;100583.28;;;11.48;100.00
38688;BME280;24444;53.216;-6.664;2022-07-23T01:00:29;100583.42;;;10.97;100.00
38688;BME280;24444;53.216;-6.664;2022-07-23T01:02:56;100584.28;;;11.33;100.00
38688;BME280;24444;53.216;-6.664;2022-07-23T01:05:24;100586.83;;;10.82;100.00
38688;BME280;24444;53.216;-6.664;2022-07-23T01:07:52;100583.88;;;10.87;100.00
38688;BME280;24444;53.216;-6.664;2022-07-23T01:10:19;100576.56;;;11.31;100.00
38688;BME280;24444;53.216;-6.664;2022-07-23T01:12:47;100572.33;;;10.49;100.00
38688;BME280;24444;53.216;-6.664;2022-07-23T01:15:14;100566.84;;;10.77;100.00
38688;BME280;24444;53.216;-6.664;2022-07-23T01:17:42;100563.03;;;10.41;100.00
38688;BME280;24444;53.216;-6.664;2022-07-23T01:20:10;100556.89;;;10.37;100.00
38688;BME280;24444;53.216;-6.664;2022-07-23T01:22:37;100555.45;;;10.75;100.00
38688;BME280;24444;53.216;-6.664;2022-07-23T01:25:06;100551.23;;;11.34;100.00
38688;BME280;24444;53.216;-6.664;2022-07-23T01:27:33;100545.52;;;11.42;100.00
38688;BME280;24444;53.216;-6.664;2022-07-23T01:30:01;100541.03;;;11.50;100.00
38688;BME280;24444;53.216;-6.664;2022-07-23T01:32:29;100535.66;;;11.46;100.00
38688;BME280;24444;53.216;-6.664;2022-07-23T01:34:57;100537.06;;;11.15;100.00
38688;BME280;24444;53.216;-6.664;2022-07-23T01:37:24;100537.53;;;10.87;100.00
38688;BME280;24444;53.216;-6.664;2022-07-23T01:39:51;100531.84;;;10.90;100.00
38688;BME280;24444;53.216;-6.664;2022-07-23T01:42:19;100527.34;;;10.81;100.00
38688;BME280;24444;53.216;-6.664;2022-07-23T01:44:47;100529.60;;;11.15;100.00
38688;BME280;24444;53.216;-6.664;2022-07-23T01:47:14;100520.65;;;11.24;100.00
38688;BME280;24444;53.216;-6.664;2022-07-23T01:49:42;100519.30;;;10.81;100.00
38688;BME280;24444;53.216;-6.664;2022-07-23T01:52:09;100519.73;;;11.19;100.00
38688;BME280;24444;53.216;-6.664;2022-07-23T01:54:38;100516.42;;;11.14;100.00
38688;BME280;24444;53.216;-6.664;2022-07-23T01:57:06;100512.98;;;10.89;100.00
38688;BME280;24444;53.216;-6.664;2022-07-23T01:59:34;100506.02;;;11.15;100.00
38688;BME280;24444;53.216;-6.664;2022-07-23T02:02:02;100502.81;;;10.94;100.00
38688;BME280;24444;53.216;-6.664;2022-07-23T02:04:30;100497.43;;;11.64;100.00
38688;BME280;24444;53.216;-6.664;2022-07-23T02:06:57;100487.89;;;11.47;100.00
38688;BME280;24444;53.216;-6.664;2022-07-23T02:09:24;100487.00;;;10.91;100.00
38688;BME280;24444;53.216;-6.664;2022-07-23T02:11:52;100488.61;;;10.88;100.00
38688;BME280;24444;53.216;-6.664;2022-07-23T02:14:20;100483.11;;;11.11;100.00
38688;BME280;24444;53.216;-6.664;2022-07-23T02:16:48;100473.90;;;11.76;100.00
38688;BME280;24444;53.216;-6.664;2022-07-23T02:19:15;100471.42;;;11.33;100.00
38688;BME280;24444;53.216;-6.664;2022-07-23T02:21:43;100471.88;;;10.64;100.00
38688;BME280;24444;53.216;-6.664;2022-07-23T02:24:11;100469.43;;;10.63;100.00
38688;BME280;24444;53.216;-6.664;2022-07-23T02:26:38;100472.06;;;11.22;100.00
38688;BME280;24444;53.216;-6.664;2022-07-23T02:29:06;100472.74;;;11.03;100.00
38688;BME280;24444;53.216;-6.664;2022-07-23T02:31:34;100473.68;;;11.10;100.00
38688;BME280;24444;53.216;-6.664;2022-07-23T02:34:01;100468.41;;;10.95;100.00
38688;BME280;24444;53.216;-6.664;2022-07-23T02:36:29;100466.61;;;11.17;100.00
38688;BME280;24444;53.216;-6.664;2022-07-23T02:38:57;100464.56;;;10.49;100.00
38688;BME280;24444;53.216;-6.664;2022-07-23T02:41:25;100461.14;;;11.12;100.00
38688;BME280;24444;53.216;-6.664;2022-07-23T02:43:52;100459.42;;;11.46;100.00
38688;BME280;24444;53.216;-6.664;2022-07-23T02:46:20;100453.76;;;11.37;100.00
38688;BME280;24444;53.216;-6.664;2022-07-23T02:48:47;100450.05;;;11.28;100.00
38688;BME280;24444;53.216;-6.664;2022-07-23T02:51:15;100451.29;;;11.08;100.00
38688;BME280;24444;53.216;-6.664;2022-07-23T02:53:42;100451.69;;;10.93;100.00
38688;BME280;24444;53.216;-6.664;2022-07-23T02:56:10;100449.40;;;11.76;100.00
38688;BME280;24444;53.216;-6.664;2022-07-23T02:58:37;100448.62;;;11.55;100.00
38688;BME280;24444;53.216;-6.664;2022-07-23T03:01:05;100445.74;;;11.07;100.00
38688;BME280;24444;53.216;-6.664;2022-07-23T03:03:33;100444.52;;;10.23;100.00
38688;BME280;24444;53.216;-6.664;2022-07-23T03:06:00;100443.37;;;11.09;100.00
38688;BME280;24444;53.216;-6.664;2022-07-23T03:08:28;100441.23;;;11.13;100.00
38688;BME280;24444;53.216;-6.664;2022-07-23T03:10:55;100439.52;;;10.74;100.00
38688;BME280;24444;53.216;-6.664;2022-07-23T03:13:23;100441.49;;;11.40;100.00
38688;BME280;24444;53.216;-6.664;2022-07-23T03:15:50;100442.33;;;11.64;100.00
38688;BME280;24444;53.216;-6.664;2022-07-23T03:18:18;100439.19;;;11.42;100.00
38688;BME280;24444;53.216;-6.664;2022-07-23T03:20:45;100440.58;;;10.72;100.00
38688;BME280;24444;53.216;-6.664;2022-07-23T03:23:13;100440.43;;;11.37;100.00
38688;BME280;24444;53.216;-6.664;2022-07-23T03:25:40;100431.87;;;11.35;100.00
38688;BME280;24444;53.216;-6.664;2022-07-23T03:28:08;100422.62;;;11.30;100.00
38688;BME280;24444;53.216;-6.664;2022-07-23T03:30:35;100413.02;;;11.31;100.00
38688;BME280;24444;53.216;-6.664;2022-07-23T03:33:03;100417.54;;;11.19;100.00
38688;BME280;24444;53.216;-6.664;2022-07-23T03:35:31;100421.95;;;11.56;100.00
38688;BME280;24444;53.216;-6.664;2022-07-23T03:37:58;100423.34;;;10.80;100.00
38688;BME280;24444;53.216;-6.664;2022-07-23T03:40:26;100422.01;;;10.82;100.00
38688;BME280;24444;53.216;-6.664;2022-07-23T03:42:53;100421.19;;;10.96;100.00
38688;BME280;24444;53.216;-6.664;2022-07-23T03:45:21;100410.57;;;10.99;100.00
38688;BME280;24444;53.216;-6.664;2022-07-23T03:47:48;100404.00;;;11.55;100.00
38688;BME280;24444;53.216;-6.664;2022-07-23T03:50:16;100404.36;;;11.39;100.00
38688;BME280;24444;53.216;-6.664;2022-07-23T03:52:43;100402.56;;;10.89;100.00
38688;BME280;24444;53.216;-6.664;2022-07-23T03:55:11;100391.12;;;11.50;100.00
38688;BME280;24444;53.216;-6.664;2022-07-23T03:57:39;100391.48;;;11.50;100.00
38688;BME280;24444;53.216;-6.664;2022-07-23T04:00:08;100393.06;;;11.33;100.00
38688;BME280;24444;53.216;-6.664;2022-07-23T04:02:37;100386.66;;;11.15;100.00
38688;BME280;24444;53.216;-6.664;2022-07-23T04:05:06;100393.83;;;10.79;100.00
38688;BME280;24444;53.216;-6.664;2022-07-23T04:07:34;100388.39;;;10.70;100.00
38688;BME280;24444;53.216;-6.664;2022-07-23T04:10:02;100379.17;;;10.52;100.00
38688;BME280;24444;53.216;-6.664;2022-07-23T04:12:29;100377.58;;;10.96;100.00
38688;BME280;24444;53.216;-6.664;2022-07-23T04:14:57;100376.56;;;10.47;100.00
38688;BME280;24444;53.216;-6.664;2022-07-23T04:17:24;100375.22;;;11.17;100.00
38688;BME280;24444;53.216;-6.664;2022-07-23T04:19:52;100369.79;;;11.87;100.00
38688;BME280;24444;53.216;-6.664;2022-07-23T04:22:19;100367.82;;;11.46;100.00
38688;BME280;24444;53.216;-6.664;2022-07-23T04:24:47;100364.35;;;11.33;100.00
38688;BME280;24444;53.216;-6.664;2022-07-23T04:27:14;100366.92;;;10.57;100.00
38688;BME280;24444;53.216;-6.664;2022-07-23T04:29:42;100366.95;;;10.90;100.00
38688;BME280;24444;53.216;-6.664;2022-07-23T04:32:09;100365.17;;;10.95;100.00
38688;BME280;24444;53.216;-6.664;2022-07-23T04:34:37;100364.27;;;10.95;100.00
38688;BME280;24444;53.216;-6.664;2022-07-23T04:37:04;100361.06;;;11.43;100.00
38688;BME280;24444;53.216;-6.664;2022-07-23T04:39:32;100358.77;;;11.23;100.00
38688;BME280;24444;53.216;-6.664;2022-07-23T04:42:00;100350.27;;;10.95;100.00
38688;BME280;24444;53.216;-6.664;2022-07-23T04:44:27;100352.13;;;11.21;100.00
38688;BME280;24444;53.216;-6.664;2022-07-23T04:46:55;100352.45;;;10.52;100.00
38688;BME280;24444;53.216;-6.664;2022-07-23T04:49:22;100354.53;;;11.03;100.00
38688;BME280;24444;53.216;-6.664;2022-07-23T04:51:50;100355.62;;;10.88;100.00
38688;BME280;24444;53.216;-6.664;2022-07-23T04:54:17;100357.75;;;10.94;100.00
38688;BME280;24444;53.216;-6.664;2022-07-23T04:56:45;100354.45;;;11.31;100.00
38688;BME280;24444;53.216;-6.664;2022-07-23T04:59:12;100356.03;;;10.91;100.00
38688;BME280;24444;53.216;-6.664;2022-07-23T05:01:40;100358.21;;;10.57;100.00
38688;BME280;24444;53.216;-6.664;2022-07-23T05:04:07;100361.76;;;10.50;100.00
38688;BME280;24444;53.216;-6.664;2022-07-23T05:06:35;100360.89;;;10.66;100.00
38688;BME280;24444;53.216;-6.664;2022-07-23T05:09:02;100358.75;;;10.88;100.00
38688;BME280;24444;53.216;-6.664;2022-07-23T05:11:30;100355.97;;;10.83;100.00
38688;BME280;24444;53.216;-6.664;2022-07-23T05:13:57;100352.51;;;10.18;100.00
38688;BME280;24444;53.216;-6.664;2022-07-23T05:16:25;100345.98;;;10.29;100.00
38688;BME280;24444;53.216;-6.664;2022-07-23T05:18:53;100343.21;;;10.91;100.00
38688;BME280;24444;53.216;-6.664;2022-07-23T05:21:20;100342.41;;;10.97;100.00
38688;BME280;24444;53.216;-6.664;2022-07-23T05:23:48;100336.54;;;11.54;100.00
38688;BME280;24444;53.216;-6.664;2022-07-23T05:26:15;100332.09;;;11.20;100.00
38688;BME280;24444;53.216;-6.664;2022-07-23T05:28:43;100327.28;;;10.91;100.00
38688;BME280;24444;53.216;-6.664;2022-07-23T05:31:10;100325.15;;;11.18;100.00
38688;BME280;24444;53.216;-6.664;2022-07-23T05:33:38;100325.01;;;10.88;100.00
38688;BME280;24444;53.216;-6.664;2022-07-23T05:36:06;100323.07;;;11.26;100.00
38688;BME280;24444;53.216;-6.664;2022-07-23T05:38:34;100325.07;;;10.91;100.00
38688;BME280;24444;53.216;-6.664;2022-07-23T05:41:02;100322.78;;;11.58;100.00
38688;BME280;24444;53.216;-6.664;2022-07-23T05:43:29;100328.99;;;11.55;100.00
38688;BME280;24444;53.216;-6.664;2022-07-23T05:45:56;100324.98;;;10.51;100.00
38688;BME280;24444;53.216;-6.664;2022-07-23T05:48:24;100322.21;;;10.38;100.00
38688;BME280;24444;53.216;-6.664;2022-07-23T05:50:52;100320.93;;;11.23;100.00
38688;BME280;24444;53.216;-6.664;2022-07-23T05:53:19;100319.93;;;10.96;100.00
38688;BME280;24444;53.216;-6.664;2022-07-23T05:55:46;100313.24;;;10.93;100.00
38688;BME280;24444;53.216;-6.664;2022-07-23T05:58:14;100314.81;;;10.72;100.00
38688;BME280;24444;53.216;-6.664;2022-07-23T06:00:42;100311.26;;;10.74;100.00
38688;BME280;24444;53.216;-6.664;2022-07-23T06:03:09;100304.95;;;10.90;100.00
38688;BME280;24444;53.216;-6.664;2022-07-23T06:05:37;100302.26;;;10.50;100.00
38688;BME280;24444;53.216;-6.664;2022-07-23T06:08:04;100301.82;;;10.81;100.00
38688;BME280;24444;53.216;-6.664;2022-07-23T06:10:32;100305.00;;;10.17;100.00
38688;BME280;24444;53.216;-6.664;2022-07-23T06:12:59;100301.64;;;11.07;100.00
38688;BME280;24444;53.216;-6.664;2022-07-23T06:15:27;100302.71;;;10.19;100.00
38688;BME280;24444;53.216;-6.664;2022-07-23T06:17:55;100302.89;;;10.39;100.00
38688;BME280;24444;53.216;-6.664;2022-07-23T06:20:23;100298.53;;;10.07;100.00
38688;BME280;24444;53.216;-6.664;2022-07-23T06:22:50;100292.50;;;11.25;100.00
38688;BME280;24444;53.216;-6.664;2022-07-23T06:25:18;100290.16;;;10.75;100.00
38688;BME280;24444;53.216;-6.664;2022-07-23T06:27:45;100286.70;;;10.77;100.00
38688;BME280;24444;53.216;-6.664;2022-07-23T06:30:13;100282.95;;;10.98;100.00
38688;BME280;24444;53.216;-6.664;2022-07-23T06:32:40;100279.12;;;10.76;100.00
38688;BME280;24444;53.216;-6.664;2022-07-23T06:35:08;100276.13;;;10.95;100.00
38688;BME280;24444;53.216;-6.664;2022-07-23T06:37:36;100274.11;;;11.07;100.00
38688;BME280;24444;53.216;-6.664;2022-07-23T06:40:04;100274.13;;;10.61;100.00
38688;BME280;24444;53.216;-6.664;2022-07-23T06:42:32;100269.04;;;11.33;100.00
38688;BME280;24444;53.216;-6.664;2022-07-23T06:44:59;100264.05;;;11.46;100.00
38688;BME280;24444;53.216;-6.664;2022-07-23T06:47:27;100260.87;;;10.95;100.00
38688;BME280;24444;53.216;-6.664;2022-07-23T06:49:54;100259.28;;;11.28;100.00
38688;BME280;24444;53.216;-6.664;2022-07-23T06:52:22;100255.92;;;11.45;100.00
38688;BME280;24444;53.216;-6.664;2022-07-23T06:54:50;100254.52;;;11.49;100.00
38688;BME280;24444;53.216;-6.664;2022-07-23T06:57:17;100250.98;;;11.29;100.00
38688;BME280;24444;53.216;-6.664;2022-07-23T06:59:45;100246.98;;;10.97;100.00
38688;BME280;24444;53.216;-6.664;2022-07-23T07:02:12;100241.22;;;11.79;100.00
38688;BME280;24444;53.216;-6.664;2022-07-23T07:04:40;100240.48;;;11.33;100.00
38688;BME280;24444;53.216;-6.664;2022-07-23T07:07:07;100237.54;;;11.99;100.00
38688;BME280;24444;53.216;-6.664;2022-07-23T07:09:35;100237.71;;;11.97;100.00
38688;BME280;24444;53.216;-6.664;2022-07-23T07:12:03;100230.95;;;10.66;100.00
38688;BME280;24444;53.216;-6.664;2022-07-23T07:14:31;100231.69;;;11.64;100.00
38688;BME280;24444;53.216;-6.664;2022-07-23T07:16:59;100232.76;;;11.56;100.00
38688;BME280;24444;53.216;-6.664;2022-07-23T07:19:26;100229.00;;;12.25;100.00
38688;BME280;24444;53.216;-6.664;2022-07-23T07:21:54;100233.70;;;11.74;100.00
38688;BME280;24444;53.216;-6.664;2022-07-23T07:24:21;100232.86;;;11.57;100.00
38688;BME280;24444;53.216;-6.664;2022-07-23T07:26:49;100228.38;;;12.40;100.00
38688;BME280;24444;53.216;-6.664;2022-07-23T07:29:16;100218.82;;;11.99;100.00
38688;BME280;24444;53.216;-6.664;2022-07-23T07:31:44;100226.90;;;11.33;100.00
38688;BME280;24444;53.216;-6.664;2022-07-23T07:34:11;100223.38;;;12.49;100.00
38688;BME280;24444;53.216;-6.664;2022-07-23T07:36:39;100215.48;;;12.15;100.00
38688;BME280;24444;53.216;-6.664;2022-07-23T07:39:07;100213.73;;;11.88;100.00
38688;BME280;24444;53.216;-6.664;2022-07-23T07:41:34;100217.09;;;11.50;100.00
38688;BME280;24444;53.216;-6.664;2022-07-23T07:44:02;100216.91;;;11.86;100.00
38688;BME280;24444;53.216;-6.664;2022-07-23T07:46:29;100212.45;;;11.78;100.00
38688;BME280;24444;53.216;-6.664;2022-07-23T07:48:57;100210.88;;;11.91;100.00
38688;BME280;24444;53.216;-6.664;2022-07-23T07:51:24;100215.47;;;12.02;100.00
38688;BME280;24444;53.216;-6.664;2022-07-23T07:53:52;100212.13;;;11.73;100.00
38688;BME280;24444;53.216;-6.664;2022-07-23T07:56:19;100208.97;;;11.95;100.00
38688;BME280;24444;53.216;-6.664;2022-07-23T07:58:47;100205.03;;;11.45;100.00
38688;BME280;24444;53.216;-6.664;2022-07-23T08:01:15;100202.90;;;11.51;100.00
38688;BME280;24444;53.216;-6.664;2022-07-23T08:03:42;100202.01;;;11.71;100.00
38688;BME280;24444;53.216;-6.664;2022-07-23T08:06:09;100201.26;;;12.16;100.00
38688;BME280;24444;53.216;-6.664;2022-07-23T08:08:37;100203.77;;;11.94;100.00
38688;BME280;24444;53.216;-6.664;2022-07-23T08:11:04;100199.63;;;11.38;100.00
38688;BME280;24444;53.216;-6.664;2022-07-23T08:13:32;100195.00;;;12.01;100.00
38688;BME280;24444;53.216;-6.664;2022-07-23T08:15:59;100181.98;;;12.57;100.00
38688;BME280;24444;53.216;-6.664;2022-07-23T08:18:27;100173.93;;;12.27;100.00
38688;BME280;24444;53.216;-6.664;2022-07-23T08:20:54;100167.62;;;12.66;100.00
38688;BME280;24444;53.216;-6.664;2022-07-23T08:23:22;100171.96;;;12.30;100.00
38688;BME280;24444;53.216;-6.664;2022-07-23T08:25:49;100162.88;;;12.68;100.00
38688;BME280;24444;53.216;-6.664;2022-07-23T08:28:17;100158.59;;;12.43;100.00
38688;BME280;24444;53.216;-6.664;2022-07-23T08:30:45;100160.88;;;12.53;100.00
38688;BME280;24444;53.216;-6.664;2022-07-23T08:33:13;100165.03;;;12.29;100.00
38688;BME280;24444;53.216;-6.664;2022-07-23T08:35:43;100170.13;;;12.18;100.00
38688;BME280;24444;53.216;-6.664;2022-07-23T08:38:11;100170.03;;;12.22;100.00
38688;BME280;24444;53.216;-6.664;2022-07-23T08:40:40;100156.58;;;12.47;100.00
38688;BME280;24444;53.216;-6.664;2022-07-23T08:43:09;100151.74;;;12.42;100.00
38688;BME280;24444;53.216;-6.664;2022-07-23T08:45:39;100150.98;;;12.55;100.00
38688;BME280;24444;53.216;-6.664;2022-07-23T08:48:08;100150.55;;;12.36;100.00
38688;BME280;24444;53.216;-6.664;2022-07-23T08:50:39;100141.48;;;12.36;100.00
38688;BME280;24444;53.216;-6.664;2022-07-23T08:53:09;100133.27;;;12.11;100.00
38688;BME280;24444;53.216;-6.664;2022-07-23T08:55:37;100134.42;;;12.73;100.00
38688;BME280;24444;53.216;-6.664;2022-07-23T08:58:05;100136.21;;;12.66;100.00
38688;BME280;24444;53.216;-6.664;2022-07-23T09:00:32;100137.72;;;12.98;100.00
38688;BME280;24444;53.216;-6.664;2022-07-23T09:03:00;100139.38;;;12.83;100.00
38688;BME280;24444;53.216;-6.664;2022-07-23T09:05:27;100130.04;;;12.53;100.00
38688;BME280;24444;53.216;-6.664;2022-07-23T09:08:12;100125.77;;;12.83;100.00
38688;BME280;24444;53.216;-6.664;2022-07-23T09:10:45;100122.42;;;12.68;100.00
38688;BME280;24444;53.216;-6.664;2022-07-23T09:13:48;100124.51;;;13.37;100.00
38688;BME280;24444;53.216;-6.664;2022-07-23T09:16:16;100117.57;;;13.52;100.00
38688;BME280;24444;53.216;-6.664;2022-07-23T09:18:47;100119.91;;;13.49;100.00
38688;BME280;24444;53.216;-6.664;2022-07-23T09:21:18;100113.68;;;13.89;100.00
38688;BME280;24444;53.216;-6.664;2022-07-23T09:23:48;100109.48;;;13.67;100.00
38688;BME280;24444;53.216;-6.664;2022-07-23T09:26:26;100117.89;;;14.01;100.00
38688;BME280;24444;53.216;-6.664;2022-07-23T09:28:57;100109.94;;;13.17;100.00
38688;BME280;24444;53.216;-6.664;2022-07-23T09:31:25;100105.55;;;13.86;100.00
38688;BME280;24444;53.216;-6.664;2022-07-23T09:34:07;100102.25;;;13.18;100.00
38688;BME280;24444;53.216;-6.664;2022-07-23T09:36:35;100107.67;;;13.53;100.00
38688;BME280;24444;53.216;-6.664;2022-07-23T09:39:03;100111.43;;;13.41;100.00
38688;BME280;24444;53.216;-6.664;2022-07-23T09:41:37;100107.57;;;13.33;100.00
38688;BME280;24444;53.216;-6.664;2022-07-23T09:44:10;100108.05;;;13.04;100.00
38688;BME280;24444;53.216;-6.664;2022-07-23T09:46:38;100101.75;;;13.07;100.00
38688;BME280;24444;53.216;-6.664;2022-07-23T09:49:12;100104.66;;;13.96;100.00
38688;BME280;24444;53.216;-6.664;2022-07-23T09:51:45;100096.88;;;13.13;100.00
38688;BME280;24444;53.216;-6.664;2022-07-23T09:54:23;100089.33;;;13.78;100.00
38688;BME280;24444;53.216;-6.664;2022-07-23T09:56:52;100086.15;;;13.26;100.00
38688;BME280;24444;53.216;-6.664;2022-07-23T09:59:23;100075.09;;;14.28;100.00
38688;BME280;24444;53.216;-6.664;2022-07-23T10:01:52;100085.50;;;14.14;100.00
38688;BME280;24444;53.216;-6.664;2022-07-23T10:04:21;100067.99;;;13.91;100.00
38688;BME280;24444;53.216;-6.664;2022-07-23T10:06:51;100066.94;;;14.35;100.00
38688;BME280;24444;53.216;-6.664;2022-07-23T10:09:23;100073.92;;;14.57;100.00
38688;BME280;24444;53.216;-6.664;2022-07-23T10:11:56;100080.18;;;14.62;100.00
38688;BME280;24444;53.216;-6.664;2022-07-23T10:14:24;100080.38;;;14.53;100.00
38688;BME280;24444;53.216;-6.664;2022-07-23T10:16:52;100077.56;;;14.82;100.00
38688;BME280;24444;53.216;-6.664;2022-07-23T10:19:19;100084.19;;;14.90;100.00
38688;BME280;24444;53.216;-6.664;2022-07-23T10:21:49;100084.88;;;14.58;100.00
38688;BME280;24444;53.216;-6.664;2022-07-23T10:24:34;100081.54;;;14.87;100.00
38688;BME280;24444;53.216;-6.664;2022-07-23T10:27:12;100068.81;;;14.63;100.00
38688;BME280;24444;53.216;-6.664;2022-07-23T10:29:50;100069.40;;;14.12;100.00
38688;BME280;24444;53.216;-6.664;2022-07-23T10:32:28;100075.44;;;14.89;100.00
38688;BME280;24444;53.216;-6.664;2022-07-23T10:35:07;100072.33;;;14.87;100.00
38688;BME280;24444;53.216;-6.664;2022-07-23T10:37:40;100063.44;;;15.04;100.00
38688;BME280;24444;53.216;-6.664;2022-07-23T10:40:11;100068.31;;;15.33;100.00
38688;BME280;24444;53.216;-6.664;2022-07-23T10:42:38;100071.16;;;15.73;100.00
38688;BME280;24444;53.216;-6.664;2022-07-23T10:45:24;100069.95;;;15.52;100.00
38688;BME280;24444;53.216;-6.664;2022-07-23T10:47:53;100076.93;;;14.70;100.00
38688;BME280;24444;53.216;-6.664;2022-07-23T10:50:23;100066.17;;;14.87;100.00
38688;BME280;24444;53.216;-6.664;2022-07-23T10:53:23;100074.95;;;14.53;100.00
38688;BME280;24444;53.216;-6.664;2022-07-23T10:55:52;100079.91;;;14.72;100.00
38688;BME280;24444;53.216;-6.664;2022-07-23T10:58:23;100070.89;;;14.67;100.00
38688;BME280;24444;53.216;-6.664;2022-07-23T11:00:50;100067.99;;;14.97;100.00
38688;BME280;24444;53.216;-6.664;2022-07-23T11:03:35;100069.39;;;14.31;100.00
38688;BME280;24444;53.216;-6.664;2022-07-23T11:06:03;100076.67;;;14.53;100.00
38688;BME280;24444;53.216;-6.664;2022-07-23T11:08:31;100069.41;;;14.80;100.00
38688;BME280;24444;53.216;-6.664;2022-07-23T11:11:14;100072.53;;;15.04;100.00
38688;BME280;24444;53.216;-6.664;2022-07-23T11:13:44;100074.18;;;14.97;100.00
38688;BME280;24444;53.216;-6.664;2022-07-23T11:16:23;100076.44;;;15.04;100.00
38688;BME280;24444;53.216;-6.664;2022-07-23T11:19:04;100073.26;;;14.55;100.00
38688;BME280;24444;53.216;-6.664;2022-07-23T11:21:48;100064.39;;;14.81;100.00
38688;BME280;24444;53.216;-6.664;2022-07-23T11:24:18;100050.80;;;15.47;100.00
38688;BME280;24444;53.216;-6.664;2022-07-23T11:26:50;100047.17;;;15.40;100.00
38688;BME280;24444;53.216;-6.664;2022-07-23T11:29:49;100045.85;;;15.22;100.00
38688;BME280;24444;53.216;-6.664;2022-07-23T11:32:27;100039.04;;;15.34;100.00
38688;BME280;24444;53.216;-6.664;2022-07-23T11:34:55;100049.56;;;15.43;100.00
38688;BME280;24444;53.216;-6.664;2022-07-23T11:37:40;100046.18;;;15.24;100.00
38688;BME280;24444;53.216;-6.664;2022-07-23T11:40:10;100042.01;;;16.20;100.00
38688;BME280;24444;53.216;-6.664;2022-07-23T11:42:39;100029.92;;;15.67;100.00
38688;BME280;24444;53.216;-6.664;2022-07-23T11:45:08;100028.60;;;15.96;100.00
38688;BME280;24444;53.216;-6.664;2022-07-23T11:47:35;100020.13;;;16.43;100.00
38688;BME280;24444;53.216;-6.664;2022-07-23T11:50:05;100028.82;;;16.00;100.00
38688;BME280;24444;53.216;-6.664;2022-07-23T11:52:33;100026.11;;;16.89;100.00
38688;BME280;24444;53.216;-6.664;2022-07-23T11:55:03;100035.68;;;15.76;100.00
38688;BME280;24444;53.216;-6.664;2022-07-23T11:57:34;100040.23;;;15.58;100.00
38688;BME280;24444;53.216;-6.664;2022-07-23T12:00:05;100044.39;;;15.56;100.00
38688;BME280;24444;53.216;-6.664;2022-07-23T12:02:33;100044.54;;;15.14;100.00
38688;BME280;24444;53.216;-6.664;2022-07-23T12:05:01;100043.99;;;15.28;100.00
38688;BME280;24444;53.216;-6.664;2022-07-23T12:07:31;100042.65;;;15.28;100.00
38688;BME280;24444;53.216;-6.664;2022-07-23T12:10:00;100041.18;;;15.45;100.00
38688;BME280;24444;53.216;-6.664;2022-07-23T12:12:30;100047.05;;;15.60;100.00
38688;BME280;24444;53.216;-6.664;2022-07-23T12:15:01;100039.91;;;15.58;100.00
38688;BME280;24444;53.216;-6.664;2022-07-23T12:17:30;100033.81;;;15.14;100.00
38688;BME280;24444;53.216;-6.664;2022-07-23T12:19:59;100041.89;;;14.81;100.00
38688;BME280;24444;53.216;-6.664;2022-07-23T12:22:34;100039.29;;;14.84;100.00
38688;BME280;24444;53.216;-6.664;2022-07-23T12:25:03;100035.73;;;15.07;100.00
38688;BME280;24444;53.216;-6.664;2022-07-23T12:27:31;100033.30;;;15.29;100.00
38688;BME280;24444;53.216;-6.664;2022-07-23T12:29:59;100034.63;;;15.51;100.00
38688;BME280;24444;53.216;-6.664;2022-07-23T12:32:28;100026.58;;;16.02;100.00
38688;BME280;24444;53.216;-6.664;2022-07-23T12:35:05;100020.95;;;15.58;100.00
38688;BME280;24444;53.216;-6.664;2022-07-23T12:37:35;100006.48;;;16.02;100.00
38688;BME280;24444;53.216;-6.664;2022-07-23T12:40:21;100010.64;;;15.62;100.00